sensor_id;sensor_type;location;lat;lon;timestamp;temperature;humidity
64468;DHT22;50853;46.836;16.820;2023-11-25T00:02:21;9.40;80.70
64468;DHT22;50853;46.836;16.820;2023-11-25T00:04:46;9.40;80.80
64468;DHT22;50853;46.836;16.820;2023-11-25T00:07:12;9.40;80.60
64468;DHT22;50853;46.836;16.820;2023-11-25T00:09:38;9.40;80.50
64468;DHT22;50853;46.836;16.820;2023-11-25T00:12:04;9.40;80.70
64468;DHT22;50853;46.836;16.820;2023-11-25T00:14:30;9.40;80.80
64468;DHT22;50853;46.836;16.820;2023-11-25T00:16:56;9.40;80.70
64468;DHT22;50853;46.836;16.820;2023-11-25T00:19:22;9.40;80.80
64468;DHT22;50853;46.836;16.820;2023-11-25T00:21:48;9.40;80.70
64468;DHT22;50853;46.836;16.820;2023-11-25T00:24:13;9.40;80.50
64468;DHT22;50853;46.836;16.820;2023-11-25T00:26:39;9.40;80.70
64468;DHT22;50853;46.836;16.820;2023-11-25T00:29:05;9.40;80.60
64468;DHT22;50853;46.836;16.820;2023-11-25T00:31:31;9.40;80.80
64468;DHT22;50853;46.836;16.820;2023-11-25T00:33:58;9.40;80.60
64468;DHT22;50853;46.836;16.820;2023-11-25T00:36:24;9.40;80.70
64468;DHT22;50853;46.836;16.820;2023-11-25T00:38:50;9.40;80.60
64468;DHT22;50853;46.836;16.820;2023-11-25T00:41:16;9.40;80.60
64468;DHT22;50853;46.836;16.820;2023-11-25T00:43:42;9.40;80.60
64468;DHT22;50853;46.836;16.820;2023-11-25T00:46:08;9.40;80.70
64468;DHT22;50853;46.836;16.820;2023-11-25T00:48:33;9.40;80.70
64468;DHT22;50853;46.836;16.820;2023-11-25T00:51:01;9.40;80.70
64468;DHT22;50853;46.836;16.820;2023-11-25T00:53:27;9.40;80.70
64468;DHT22;50853;46.836;16.820;2023-11-25T00:55:52;9.40;80.70
64468;DHT22;50853;46.836;16.820;2023-11-25T00:58:18;9.40;80.60
64468;DHT22;50853;46.836;16.820;2023-11-25T01:00:44;9.40;80.50
64468;DHT22;50853;46.836;16.820;2023-11-25T01:03:10;9.40;80.30
64468;DHT22;50853;46.836;16.820;2023-11-25T01:05:36;9.40;80.60
64468;DHT22;50853;46.836;16.820;2023-11-25T01:08:02;9.40;80.60
64468;DHT22;50853;46.836;16.820;2023-11-25T01:10:27;9.40;80.70
64468;DHT22;50853;46.836;16.820;2023-11-25T01:12:53;9.40;80.60
64468;DHT22;50853;46.836;16.820;2023-11-25T01:15:19;9.40;80.30
64468;DHT22;50853;46.836;16.820;2023-11-25T01:17:45;9.40;80.40
64468;DHT22;50853;46.836;16.820;2023-11-25T01:20:12;9.40;80.70
64468;DHT22;50853;46.836;16.820;2023-11-25T01:22:39;9.40;80.40
64468;DHT22;50853;46.836;16.820;2023-11-25T01:25:05;9.40;80.70
64468;DHT22;50853;46.836;16.820;2023-11-25T01:27:34;9.30;80.30
64468;DHT22;50853;46.836;16.820;2023-11-25T01:30:02;9.40;80.40
64468;DHT22;50853;46.836;16.820;2023-11-25T01:32:30;9.40;80.30
64468;DHT22;50853;46.836;16.820;2023-11-25T01:34:56;9.30;80.00
64468;DHT22;50853;46.836;16.820;2023-11-25T01:37:22;9.30;80.50
64468;DHT22;50853;46.836;16.820;2023-11-25T01:39:52;9.30;80.80
64468;DHT22;50853;46.836;16.820;2023-11-25T01:42:18;9.30;80.50
64468;DHT22;50853;46.836;16.820;2023-11-25T01:44:44;9.30;80.60
64468;DHT22;50853;46.836;16.820;2023-11-25T01:47:11;9.30;80.30
64468;DHT22;50853;46.836;16.820;2023-11-25T01:49:38;9.30;80.30
64468;DHT22;50853;46.836;16.820;2023-11-25T01:52:07;9.30;80.30
64468;DHT22;50853;46.836;16.820;2023-11-25T01:54:34;9.30;80.30
64468;DHT22;50853;46.836;16.820;2023-11-25T01:57:00;9.30;80.50
64468;DHT22;50853;46.836;16.820;2023-11-25T01:59:28;9.30;80.50
64468;DHT22;50853;46.836;16.820;2023-11-25T02:01:56;9.30;80.50
64468;DHT22;50853;46.836;16.820;2023-11-25T02:04:22;9.30;80.50
64468;DHT22;50853;46.836;16.820;2023-11-25T02:06:50;9.30;80.60
64468;DHT22;50853;46.836;16.820;2023-11-25T02:09:16;9.30;80.40
64468;DHT22;50853;46.836;16.820;2023-11-25T02:11:56;9.30;80.30
64468;DHT22;50853;46.836;16.820;2023-11-25T02:14:23;9.30;80.50
64468;DHT22;50853;46.836;16.820;2023-11-25T02:16:49;9.30;80.40
64468;DHT22;50853;46.836;16.820;2023-11-25T02:19:15;9.30;80.30
64468;DHT22;50853;46.836;16.820;2023-11-25T02:21:42;9.30;80.50
64468;DHT22;50853;46.836;16.820;2023-11-25T02:24:08;9.30;80.50
64468;DHT22;50853;46.836;16.820;2023-11-25T02:26:33;9.30;80.60
64468;DHT22;50853;46.836;16.820;2023-11-25T02:29:02;9.30;80.30
64468;DHT22;50853;46.836;16.820;2023-11-25T02:31:29;9.30;80.30
64468;DHT22;50853;46.836;16.820;2023-11-25T02:33:55;9.30;80.60
64468;DHT22;50853;46.836;16.820;2023-11-25T02:36:21;9.30;80.40
64468;DHT22;50853;46.836;16.820;2023-11-25T02:38:49;9.30;80.40
64468;DHT22;50853;46.836;16.820;2023-11-25T02:41:15;9.30;80.50
64468;DHT22;50853;46.836;16.820;2023-11-25T02:43:41;9.30;80.40
64468;DHT22;50853;46.836;16.820;2023-11-25T02:46:07;9.30;80.70
64468;DHT22;50853;46.836;16.820;2023-11-25T02:48:34;9.30;80.50
64468;DHT22;50853;46.836;16.820;2023-11-25T02:51:01;9.30;80.50
64468;DHT22;50853;46.836;16.820;2023-11-25T02:53:28;9.30;80.20
64468;DHT22;50853;46.836;16.820;2023-11-25T02:55:56;9.30;80.70
64468;DHT22;50853;46.836;16.820;2023-11-25T02:58:21;9.30;80.60
64468;DHT22;50853;46.836;16.820;2023-11-25T03:00:48;9.20;80.70
64468;DHT22;50853;46.836;16.820;2023-11-25T03:03:15;9.20;80.40
64468;DHT22;50853;46.836;16.820;2023-11-25T03:05:44;9.20;80.40
64468;DHT22;50853;46.836;16.820;2023-11-25T03:08:15;9.20;80.70
64468;DHT22;50853;46.836;16.820;2023-11-25T03:10:43;9.20;80.40
64468;DHT22;50853;46.836;16.820;2023-11-25T03:13:13;9.20;80.50
64468;DHT22;50853;46.836;16.820;2023-11-25T03:15:40;9.20;80.60
64468;DHT22;50853;46.836;16.820;2023-11-25T03:18:07;9.20;80.40
64468;DHT22;50853;46.836;16.820;2023-11-25T03:20:36;9.20;80.90
64468;DHT22;50853;46.836;16.820;2023-11-25T03:23:04;9.20;80.50
64468;DHT22;50853;46.836;16.820;2023-11-25T03:25:30;9.20;80.30
64468;DHT22;50853;46.836;16.820;2023-11-25T03:27:59;9.20;80.60
64468;DHT22;50853;46.836;16.820;2023-11-25T03:30:33;9.20;80.40
64468;DHT22;50853;46.836;16.820;2023-11-25T03:32:59;9.20;80.60
64468;DHT22;50853;46.836;16.820;2023-11-25T03:35:25;9.20;80.30
64468;DHT22;50853;46.836;16.820;2023-11-25T03:37:50;9.20;80.40
64468;DHT22;50853;46.836;16.820;2023-11-25T03:40:16;9.20;80.80
64468;DHT22;50853;46.836;16.820;2023-11-25T03:42:45;9.20;80.70
64468;DHT22;50853;46.836;16.820;2023-11-25T03:45:12;9.20;80.20
64468;DHT22;50853;46.836;16.820;2023-11-25T03:47:42;9.20;80.40
64468;DHT22;50853;46.836;16.820;2023-11-25T03:50:10;9.20;80.50
64468;DHT22;50853;46.836;16.820;2023-11-25T03:52:38;9.20;80.30
64468;DHT22;50853;46.836;16.820;2023-11-25T03:55:09;9.20;80.40
64468;DHT22;50853;46.836;16.820;2023-11-25T03:57:37;9.20;80.30
64468;DHT22;50853;46.836;16.820;2023-11-25T04:00:03;9.20;80.50
64468;DHT22;50853;46.836;16.820;2023-11-25T04:02:46;9.20;80.10
64468;DHT22;50853;46.836;16.820;2023-11-25T04:05:13;9.20;80.30
64468;DHT22;50853;46.836;16.820;2023-11-25T04:07:39;9.20;80.40
64468;DHT22;50853;46.836;16.820;2023-11-25T04:10:06;9.20;80.80
64468;DHT22;50853;46.836;16.820;2023-11-25T04:12:40;9.20;80.60
64468;DHT22;50853;46.836;16.820;2023-11-25T04:15:07;9.20;80.60
64468;DHT22;50853;46.836;16.820;2023-11-25T04:17:34;9.20;80.40
64468;DHT22;50853;46.836;16.820;2023-11-25T04:20:00;9.20;80.30
64468;DHT22;50853;46.836;16.820;2023-11-25T04:22:26;9.20;80.40
64468;DHT22;50853;46.836;16.820;2023-11-25T04:24:52;9.20;80.40
64468;DHT22;50853;46.836;16.820;2023-11-25T04:27:18;9.20;80.40
64468;DHT22;50853;46.836;16.820;2023-11-25T04:29:44;9.20;80.60
64468;DHT22;50853;46.836;16.820;2023-11-25T04:32:10;9.20;80.50
64468;DHT22;50853;46.836;16.820;2023-11-25T04:34:36;9.20;80.70
64468;DHT22;50853;46.836;16.820;2023-11-25T04:37:02;9.20;80.40
64468;DHT22;50853;46.836;16.820;2023-11-25T04:39:28;9.20;80.40
64468;DHT22;50853;46.836;16.820;2023-11-25T04:41:53;9.20;80.50
64468;DHT22;50853;46.836;16.820;2023-11-25T04:44:19;9.20;80.40
64468;DHT22;50853;46.836;16.820;2023-11-25T04:46:45;9.20;80.30
64468;DHT22;50853;46.836;16.820;2023-11-25T04:49:12;9.20;80.50
64468;DHT22;50853;46.836;16.820;2023-11-25T04:51:38;9.10;80.30
64468;DHT22;50853;46.836;16.820;2023-11-25T04:54:04;9.20;80.70
64468;DHT22;50853;46.836;16.820;2023-11-25T04:56:30;9.10;80.50
64468;DHT22;50853;46.836;16.820;2023-11-25T04:58:56;9.10;80.30
64468;DHT22;50853;46.836;16.820;2023-11-25T05:01:22;9.20;80.70
64468;DHT22;50853;46.836;16.820;2023-11-25T05:03:48;9.10;80.30
64468;DHT22;50853;46.836;16.820;2023-11-25T05:06:14;9.20;80.50
64468;DHT22;50853;46.836;16.820;2023-11-25T05:08:40;9.20;80.30
64468;DHT22;50853;46.836;16.820;2023-11-25T05:11:07;9.10;80.40
64468;DHT22;50853;46.836;16.820;2023-11-25T05:13:33;9.10;80.20
64468;DHT22;50853;46.836;16.820;2023-11-25T05:15:59;9.10;80.40
64468;DHT22;50853;46.836;16.820;2023-11-25T05:18:25;9.20;80.40
64468;DHT22;50853;46.836;16.820;2023-11-25T05:20:51;9.20;80.80
64468;DHT22;50853;46.836;16.820;2023-11-25T05:23:17;9.10;80.20
64468;DHT22;50853;46.836;16.820;2023-11-25T05:25:43;9.10;80.50
64468;DHT22;50853;46.836;16.820;2023-11-25T05:28:08;9.20;80.30
64468;DHT22;50853;46.836;16.820;2023-11-25T05:30:34;9.10;80.50
64468;DHT22;50853;46.836;16.820;2023-11-25T05:33:00;9.10;80.20
64468;DHT22;50853;46.836;16.820;2023-11-25T05:35:26;9.10;80.70
64468;DHT22;50853;46.836;16.820;2023-11-25T05:37:51;9.10;80.30
64468;DHT22;50853;46.836;16.820;2023-11-25T05:40:18;9.10;80.20
64468;DHT22;50853;46.836;16.820;2023-11-25T05:42:45;9.10;80.40
64468;DHT22;50853;46.836;16.820;2023-11-25T05:45:18;9.10;80.50
64468;DHT22;50853;46.836;16.820;2023-11-25T05:47:47;9.10;80.30
64468;DHT22;50853;46.836;16.820;2023-11-25T05:50:16;9.10;80.60
64468;DHT22;50853;46.836;16.820;2023-11-25T05:52:45;9.10;80.40
64468;DHT22;50853;46.836;16.820;2023-11-25T05:55:11;9.10;80.30
64468;DHT22;50853;46.836;16.820;2023-11-25T05:57:37;9.10;80.70
64468;DHT22;50853;46.836;16.820;2023-11-25T06:00:04;9.10;80.80
64468;DHT22;50853;46.836;16.820;2023-11-25T06:02:30;9.10;80.50
64468;DHT22;50853;46.836;16.820;2023-11-25T06:04:56;9.10;80.60
64468;DHT22;50853;46.836;16.820;2023-11-25T06:07:22;9.10;80.60
64468;DHT22;50853;46.836;16.820;2023-11-25T06:09:47;9.10;80.20
64468;DHT22;50853;46.836;16.820;2023-11-25T06:12:13;9.10;80.10
64468;DHT22;50853;46.836;16.820;2023-11-25T06:14:39;9.10;80.50
64468;DHT22;50853;46.836;16.820;2023-11-25T06:17:05;9.10;80.40
64468;DHT22;50853;46.836;16.820;2023-11-25T06:19:33;9.10;80.30
64468;DHT22;50853;46.836;16.820;2023-11-25T06:21:59;9.10;80.30
64468;DHT22;50853;46.836;16.820;2023-11-25T06:24:26;9.10;80.40
64468;DHT22;50853;46.836;16.820;2023-11-25T06:26:52;9.10;80.30
64468;DHT22;50853;46.836;16.820;2023-11-25T06:29:19;9.10;80.60
64468;DHT22;50853;46.836;16.820;2023-11-25T06:31:44;9.10;80.50
64468;DHT22;50853;46.836;16.820;2023-11-25T06:34:12;9.10;80.20
64468;DHT22;50853;46.836;16.820;2023-11-25T06:36:38;9.10;80.50
64468;DHT22;50853;46.836;16.820;2023-11-25T06:39:05;9.00;80.20
64468;DHT22;50853;46.836;16.820;2023-11-25T06:41:33;9.10;80.60
64468;DHT22;50853;46.836;16.820;2023-11-25T06:43:59;9.10;80.10
64468;DHT22;50853;46.836;16.820;2023-11-25T06:46:25;9.10;80.20
64468;DHT22;50853;46.836;16.820;2023-11-25T06:48:51;9.00;80.00
64468;DHT22;50853;46.836;16.820;2023-11-25T06:51:18;9.00;80.00
64468;DHT22;50853;46.836;16.820;2023-11-25T06:53:44;9.10;80.10
64468;DHT22;50853;46.836;16.820;2023-11-25T06:56:10;9.10;80.10
64468;DHT22;50853;46.836;16.820;2023-11-25T06:58:42;9.10;80.40
64468;DHT22;50853;46.836;16.820;2023-11-25T07:01:08;9.10;79.80
64468;DHT22;50853;46.836;16.820;2023-11-25T07:03:34;9.20;79.80
64468;DHT22;50853;46.836;16.820;2023-11-25T07:05:59;9.20;79.80
64468;DHT22;50853;46.836;16.820;2023-11-25T07:08:25;9.20;79.80
64468;DHT22;50853;46.836;16.820;2023-11-25T07:10:51;9.20;79.90
64468;DHT22;50853;46.836;16.820;2023-11-25T07:13:21;9.10;79.90
64468;DHT22;50853;46.836;16.820;2023-11-25T07:15:47;9.20;79.90
64468;DHT22;50853;46.836;16.820;2023-11-25T07:18:13;9.20;79.90
64468;DHT22;50853;46.836;16.820;2023-11-25T07:20:39;9.20;79.90
64468;DHT22;50853;46.836;16.820;2023-11-25T07:23:05;9.20;79.80
64468;DHT22;50853;46.836;16.820;2023-11-25T07:25:31;9.20;79.90
64468;DHT22;50853;46.836;16.820;2023-11-25T07:27:58;9.20;79.80
64468;DHT22;50853;46.836;16.820;2023-11-25T07:30:23;9.10;79.70
64468;DHT22;50853;46.836;16.820;2023-11-25T07:32:49;9.10;79.70
64468;DHT22;50853;46.836;16.820;2023-11-25T07:35:16;9.10;79.80
64468;DHT22;50853;46.836;16.820;2023-11-25T07:37:42;9.10;79.70
64468;DHT22;50853;46.836;16.820;2023-11-25T07:40:08;9.20;80.00
64468;DHT22;50853;46.836;16.820;2023-11-25T07:42:41;9.10;79.80
64468;DHT22;50853;46.836;16.820;2023-11-25T07:45:13;9.10;79.90
64468;DHT22;50853;46.836;16.820;2023-11-25T07:47:39;9.10;79.80
64468;DHT22;50853;46.836;16.820;2023-11-25T07:50:10;9.10;79.80
64468;DHT22;50853;46.836;16.820;2023-11-25T07:52:36;9.10;80.00
64468;DHT22;50853;46.836;16.820;2023-11-25T07:55:03;9.10;80.00
64468;DHT22;50853;46.836;16.820;2023-11-25T07:57:30;9.10;79.90
64468;DHT22;50853;46.836;16.820;2023-11-25T07:59:56;9.10;79.90
64468;DHT22;50853;46.836;16.820;2023-11-25T08:02:22;9.10;79.80
64468;DHT22;50853;46.836;16.820;2023-11-25T08:04:48;9.10;79.90
64468;DHT22;50853;46.836;16.820;2023-11-25T08:07:14;9.10;79.90
64468;DHT22;50853;46.836;16.820;2023-11-25T08:09:42;9.10;80.00
64468;DHT22;50853;46.836;16.820;2023-11-25T08:12:09;9.10;79.80
64468;DHT22;50853;46.836;16.820;2023-11-25T08:14:35;9.10;79.90
64468;DHT22;50853;46.836;16.820;2023-11-25T08:17:04;9.10;79.70
64468;DHT22;50853;46.836;16.820;2023-11-25T08:19:30;9.10;79.80
64468;DHT22;50853;46.836;16.820;2023-11-25T08:21:56;9.10;79.80
64468;DHT22;50853;46.836;16.820;2023-11-25T08:24:22;9.20;79.80
64468;DHT22;50853;46.836;16.820;2023-11-25T08:26:49;9.20;79.70
64468;DHT22;50853;46.836;16.820;2023-11-25T08:29:15;9.10;79.60
64468;DHT22;50853;46.836;16.820;2023-11-25T08:31:41;9.20;79.60
64468;DHT22;50853;46.836;16.820;2023-11-25T08:34:07;9.20;79.60
64468;DHT22;50853;46.836;16.820;2023-11-25T08:36:38;9.20;79.60
64468;DHT22;50853;46.836;16.820;2023-11-25T08:39:21;9.10;79.60
64468;DHT22;50853;46.836;16.820;2023-11-25T08:41:47;9.10;79.60
64468;DHT22;50853;46.836;16.820;2023-11-25T08:44:13;9.20;79.50
64468;DHT22;50853;46.836;16.820;2023-11-25T08:46:42;9.20;79.40
64468;DHT22;50853;46.836;16.820;2023-11-25T08:49:12;9.30;78.90
64468;DHT22;50853;46.836;16.820;2023-11-25T08:51:43;9.30;78.80
64468;DHT22;50853;46.836;16.820;2023-11-25T08:54:13;9.40;78.60
64468;DHT22;50853;46.836;16.820;2023-11-25T08:56:40;9.40;78.60
64468;DHT22;50853;46.836;16.820;2023-11-25T08:59:06;9.40;78.60
64468;DHT22;50853;46.836;16.820;2023-11-25T09:01:38;9.40;78.80
64468;DHT22;50853;46.836;16.820;2023-11-25T09:04:05;9.40;79.20
64468;DHT22;50853;46.836;16.820;2023-11-25T09:06:35;9.30;79.20
64468;DHT22;50853;46.836;16.820;2023-11-25T09:09:06;9.40;79.20
64468;DHT22;50853;46.836;16.820;2023-11-25T09:11:35;9.40;79.20
64468;DHT22;50853;46.836;16.820;2023-11-25T09:14:02;9.40;79.00
64468;DHT22;50853;46.836;16.820;2023-11-25T09:16:32;9.40;78.90
64468;DHT22;50853;46.836;16.820;2023-11-25T09:18:58;9.40;78.90
64468;DHT22;50853;46.836;16.820;2023-11-25T09:21:23;9.40;78.60
64468;DHT22;50853;46.836;16.820;2023-11-25T09:23:49;9.50;78.70
64468;DHT22;50853;46.836;16.820;2023-11-25T09:26:15;9.50;78.60
64468;DHT22;50853;46.836;16.820;2023-11-25T09:28:42;9.60;78.40
64468;DHT22;50853;46.836;16.820;2023-11-25T09:31:08;9.60;78.40
64468;DHT22;50853;46.836;16.820;2023-11-25T09:33:33;9.60;78.10
64468;DHT22;50853;46.836;16.820;2023-11-25T09:35:59;9.70;78.30
64468;DHT22;50853;46.836;16.820;2023-11-25T09:38:25;9.70;78.10
64468;DHT22;50853;46.836;16.820;2023-11-25T09:40:52;9.80;77.70
64468;DHT22;50853;46.836;16.820;2023-11-25T09:43:20;9.80;77.90
64468;DHT22;50853;46.836;16.820;2023-11-25T09:45:48;9.80;77.90
64468;DHT22;50853;46.836;16.820;2023-11-25T09:48:16;9.80;78.00
64468;DHT22;50853;46.836;16.820;2023-11-25T09:50:42;9.80;78.10
64468;DHT22;50853;46.836;16.820;2023-11-25T09:53:21;9.80;78.20
64468;DHT22;50853;46.836;16.820;2023-11-25T09:56:05;9.80;78.10
64468;DHT22;50853;46.836;16.820;2023-11-25T09:58:35;9.80;78.40
64468;DHT22;50853;46.836;16.820;2023-11-25T10:01:03;9.80;78.10
64468;DHT22;50853;46.836;16.820;2023-11-25T10:03:39;9.90;77.60
64468;DHT22;50853;46.836;16.820;2023-11-25T10:06:06;9.90;77.50
64468;DHT22;50853;46.836;16.820;2023-11-25T10:08:31;9.90;77.60
64468;DHT22;50853;46.836;16.820;2023-11-25T10:11:04;9.90;77.60
64468;DHT22;50853;46.836;16.820;2023-11-25T10:13:41;9.90;76.90
64468;DHT22;50853;46.836;16.820;2023-11-25T10:16:12;10.00;76.80
64468;DHT22;50853;46.836;16.820;2023-11-25T10:18:39;10.10;76.80
64468;DHT22;50853;46.836;16.820;2023-11-25T10:21:07;10.10;76.50
64468;DHT22;50853;46.836;16.820;2023-11-25T10:23:34;10.10;76.20
64468;DHT22;50853;46.836;16.820;2023-11-25T10:26:02;10.10;76.00
64468;DHT22;50853;46.836;16.820;2023-11-25T10:28:34;10.20;76.30
64468;DHT22;50853;46.836;16.820;2023-11-25T10:31:03;10.20;76.10
64468;DHT22;50853;46.836;16.820;2023-11-25T10:33:35;10.20;75.30
64468;DHT22;50853;46.836;16.820;2023-11-25T10:36:06;10.30;75.10
64468;DHT22;50853;46.836;16.820;2023-11-25T10:38:32;10.30;75.40
64468;DHT22;50853;46.836;16.820;2023-11-25T10:41:02;10.30;75.50
64468;DHT22;50853;46.836;16.820;2023-11-25T10:43:29;10.40;75.10
64468;DHT22;50853;46.836;16.820;2023-11-25T10:46:15;10.40;74.60
64468;DHT22;50853;46.836;16.820;2023-11-25T10:48:41;10.40;75.20
64468;DHT22;50853;46.836;16.820;2023-11-25T10:51:08;10.40;75.30
64468;DHT22;50853;46.836;16.820;2023-11-25T10:53:37;10.40;74.50
64468;DHT22;50853;46.836;16.820;2023-11-25T10:56:04;10.50;74.70
64468;DHT22;50853;46.836;16.820;2023-11-25T10:58:30;10.50;74.50
64468;DHT22;50853;46.836;16.820;2023-11-25T11:00:57;10.50;74.80
64468;DHT22;50853;46.836;16.820;2023-11-25T11:06:31;10.70;74.40
64468;DHT22;50853;46.836;16.820;2023-11-25T11:08:59;10.70;77.40
64468;DHT22;50853;46.836;16.820;2023-11-25T11:12:13;10.60;78.60
64468;DHT22;50853;46.836;16.820;2023-11-25T11:14:36;10.60;80.50
64468;DHT22;50853;46.836;16.820;2023-11-25T11:17:20;10.60;80.30
64468;DHT22;50853;46.836;16.820;2023-11-25T11:19:51;10.50;78.20
64468;DHT22;50853;46.836;16.820;2023-11-25T11:22:21;10.50;76.70
64468;DHT22;50853;46.836;16.820;2023-11-25T11:27:44;10.40;72.50
64468;DHT22;50853;46.836;16.820;2023-11-25T11:32:41;10.30;74.20
64468;DHT22;50853;46.836;16.820;2023-11-25T11:35:07;10.20;74.70
64468;DHT22;50853;46.836;16.820;2023-11-25T11:37:37;10.30;75.40
64468;DHT22;50853;46.836;16.820;2023-11-25T11:40:04;10.30;75.40
64468;DHT22;50853;46.836;16.820;2023-11-25T11:42:33;10.30;76.60
64468;DHT22;50853;46.836;16.820;2023-11-25T11:45:12;10.40;74.70
64468;DHT22;50853;46.836;16.820;2023-11-25T11:47:50;10.40;70.70
64468;DHT22;50853;46.836;16.820;2023-11-25T11:50:17;10.50;71.50
64468;DHT22;50853;46.836;16.820;2023-11-25T11:53:27;10.50;71.00
64468;DHT22;50853;46.836;16.820;2023-11-25T11:55:57;10.50;71.40
64468;DHT22;50853;46.836;16.820;2023-11-25T12:10:33;10.70;74.80
64468;DHT22;50853;46.836;16.820;2023-11-25T12:12:59;10.50;73.80
64468;DHT22;50853;46.836;16.820;2023-11-25T12:18:19;10.50;76.40
64468;DHT22;50853;46.836;16.820;2023-11-25T12:20:46;10.50;76.40
64468;DHT22;50853;46.836;16.820;2023-11-25T12:23:12;10.50;76.30
64468;DHT22;50853;46.836;16.820;2023-11-25T12:25:38;10.60;75.80
64468;DHT22;50853;46.836;16.820;2023-11-25T12:28:09;10.80;74.80
64468;DHT22;50853;46.836;16.820;2023-11-25T12:30:40;11.00;73.80
64468;DHT22;50853;46.836;16.820;2023-11-25T12:33:07;11.00;73.50
64468;DHT22;50853;46.836;16.820;2023-11-25T12:35:40;10.90;72.30
64468;DHT22;50853;46.836;16.820;2023-11-25T12:38:06;10.90;70.60
64468;DHT22;50853;46.836;16.820;2023-11-25T12:40:33;11.00;72.20
64468;DHT22;50853;46.836;16.820;2023-11-25T12:43:00;11.10;74.00
64468;DHT22;50853;46.836;16.820;2023-11-25T12:48:05;10.90;74.20
64468;DHT22;50853;46.836;16.820;2023-11-25T12:50:33;10.80;74.70
64468;DHT22;50853;46.836;16.820;2023-11-25T12:53:06;10.80;74.80
64468;DHT22;50853;46.836;16.820;2023-11-25T12:58:15;10.70;75.00
64468;DHT22;50853;46.836;16.820;2023-11-25T13:03:19;10.60;75.00
64468;DHT22;50853;46.836;16.820;2023-11-25T13:05:46;10.60;74.70
64468;DHT22;50853;46.836;16.820;2023-11-25T13:08:29;10.50;74.70
64468;DHT22;50853;46.836;16.820;2023-11-25T13:10:59;10.50;74.90
64468;DHT22;50853;46.836;16.820;2023-11-25T13:13:26;10.50;75.10
64468;DHT22;50853;46.836;16.820;2023-11-25T13:15:59;10.50;74.90
64468;DHT22;50853;46.836;16.820;2023-11-25T13:18:26;10.50;74.90
64468;DHT22;50853;46.836;16.820;2023-11-25T13:20:53;10.50;74.70
64468;DHT22;50853;46.836;16.820;2023-11-25T13:23:19;10.40;74.70
64468;DHT22;50853;46.836;16.820;2023-11-25T13:25:49;10.40;74.70
64468;DHT22;50853;46.836;16.820;2023-11-25T13:28:16;10.40;74.90
64468;DHT22;50853;46.836;16.820;2023-11-25T13:30:42;10.40;75.00
64468;DHT22;50853;46.836;16.820;2023-11-25T13:33:09;10.40;74.80
64468;DHT22;50853;46.836;16.820;2023-11-25T13:35:37;10.40;74.60
64468;DHT22;50853;46.836;16.820;2023-11-25T13:38:04;10.40;74.60
64468;DHT22;50853;46.836;16.820;2023-11-25T13:40:32;10.40;74.50
64468;DHT22;50853;46.836;16.820;2023-11-25T13:43:08;10.40;74.30
64468;DHT22;50853;46.836;16.820;2023-11-25T13:45:44;10.40;74.40
64468;DHT22;50853;46.836;16.820;2023-11-25T13:48:10;10.30;74.60
64468;DHT22;50853;46.836;16.820;2023-11-25T13:50:42;10.30;74.70
64468;DHT22;50853;46.836;16.820;2023-11-25T13:53:08;10.30;75.00
64468;DHT22;50853;46.836;16.820;2023-11-25T13:55:34;10.30;75.00
64468;DHT22;50853;46.836;16.820;2023-11-25T13:58:14;10.20;75.20
64468;DHT22;50853;46.836;16.820;2023-11-25T14:00:42;10.20;75.20
64468;DHT22;50853;46.836;16.820;2023-11-25T14:03:08;10.20;75.40
64468;DHT22;50853;46.836;16.820;2023-11-25T14:05:38;10.20;75.40
64468;DHT22;50853;46.836;16.820;2023-11-25T14:08:10;10.20;75.30
64468;DHT22;50853;46.836;16.820;2023-11-25T14:10:37;10.20;75.60
64468;DHT22;50853;46.836;16.820;2023-11-25T14:13:06;10.20;75.70
64468;DHT22;50853;46.836;16.820;2023-11-25T14:15:34;10.10;75.70
64468;DHT22;50853;46.836;16.820;2023-11-25T14:18:00;10.10;75.70
64468;DHT22;50853;46.836;16.820;2023-11-25T14:20:27;10.10;75.90
64468;DHT22;50853;46.836;16.820;2023-11-25T14:22:53;10.10;75.80
64468;DHT22;50853;46.836;16.820;2023-11-25T14:25:21;10.10;76.00
64468;DHT22;50853;46.836;16.820;2023-11-25T14:27:49;10.00;76.10
64468;DHT22;50853;46.836;16.820;2023-11-25T14:30:16;10.00;76.10
64468;DHT22;50853;46.836;16.820;2023-11-25T14:32:44;10.00;76.20
64468;DHT22;50853;46.836;16.820;2023-11-25T14:35:14;10.00;76.10
64468;DHT22;50853;46.836;16.820;2023-11-25T14:37:41;10.00;76.30
64468;DHT22;50853;46.836;16.820;2023-11-25T14:40:07;10.00;76.40
64468;DHT22;50853;46.836;16.820;2023-11-25T14:42:36;10.00;76.50
64468;DHT22;50853;46.836;16.820;2023-11-25T14:45:03;10.00;76.70
64468;DHT22;50853;46.836;16.820;2023-11-25T14:47:30;9.90;76.70
64468;DHT22;50853;46.836;16.820;2023-11-25T14:49:56;9.90;76.60
64468;DHT22;50853;46.836;16.820;2023-11-25T14:52:21;9.90;76.80
64468;DHT22;50853;46.836;16.820;2023-11-25T14:54:47;9.90;76.90
64468;DHT22;50853;46.836;16.820;2023-11-25T14:57:14;9.90;77.10
64468;DHT22;50853;46.836;16.820;2023-11-25T14:59:40;9.90;77.10
64468;DHT22;50853;46.836;16.820;2023-11-25T15:02:06;9.90;77.20
64468;DHT22;50853;46.836;16.820;2023-11-25T15:04:32;9.80;77.20
64468;DHT22;50853;46.836;16.820;2023-11-25T15:06:58;9.80;77.10
64468;DHT22;50853;46.836;16.820;2023-11-25T15:09:24;9.80;77.20
64468;DHT22;50853;46.836;16.820;2023-11-25T15:11:51;9.80;77.20
64468;DHT22;50853;46.836;16.820;2023-11-25T15:14:17;9.80;77.30
64468;DHT22;50853;46.836;16.820;2023-11-25T15:16:44;9.80;77.40
64468;DHT22;50853;46.836;16.820;2023-11-25T15:19:10;9.80;77.40
64468;DHT22;50853;46.836;16.820;2023-11-25T15:21:36;9.80;77.40
64468;DHT22;50853;46.836;16.820;2023-11-25T15:24:02;9.70;78.00
64468;DHT22;50853;46.836;16.820;2023-11-25T15:26:28;9.70;77.50
64468;DHT22;50853;46.836;16.820;2023-11-25T15:28:54;9.70;77.60
64468;DHT22;50853;46.836;16.820;2023-11-25T15:31:20;9.70;77.60
64468;DHT22;50853;46.836;16.820;2023-11-25T15:33:46;9.70;77.70
64468;DHT22;50853;46.836;16.820;2023-11-25T15:36:13;9.70;77.70
64468;DHT22;50853;46.836;16.820;2023-11-25T15:38:40;9.70;77.70
64468;DHT22;50853;46.836;16.820;2023-11-25T15:41:07;9.70;77.70
64468;DHT22;50853;46.836;16.820;2023-11-25T15:43:34;9.70;77.60
64468;DHT22;50853;46.836;16.820;2023-11-25T15:46:00;9.70;77.70
64468;DHT22;50853;46.836;16.820;2023-11-25T15:48:27;9.70;77.70
64468;DHT22;50853;46.836;16.820;2023-11-25T15:50:55;9.70;77.70
64468;DHT22;50853;46.836;16.820;2023-11-25T15:53:21;9.70;77.80
64468;DHT22;50853;46.836;16.820;2023-11-25T15:55:47;9.60;77.70
64468;DHT22;50853;46.836;16.820;2023-11-25T15:58:13;9.60;77.60
64468;DHT22;50853;46.836;16.820;2023-11-25T16:00:44;9.60;77.70
64468;DHT22;50853;46.836;16.820;2023-11-25T16:03:10;9.60;77.70